createdAt,value
2022-11-15T00:02:11.830Z,14.30
2022-11-15T00:04:58.542Z,11.95
2022-11-15T00:07:55.686Z,9.80
2022-11-15T00:10:42.068Z,12.30
2022-11-15T00:13:29.055Z,9.77
2022-11-15T00:16:15.443Z,11.02
2022-11-15T00:19:01.450Z,10.98
2022-11-15T00:21:47.630Z,9.88
2022-11-15T00:24:35.175Z,10.25
2022-11-15T00:27:21.255Z,9.73
2022-11-15T00:30:08.428Z,13.90
2022-11-15T00:32:54.697Z,11.35
2022-11-15T00:35:41.243Z,10.95
2022-11-15T00:38:41.223Z,11.45
2022-11-15T00:41:28.984Z,12.35
2022-11-15T00:44:15.217Z,11.57
2022-11-15T00:47:01.532Z,10.25
2022-11-15T00:49:47.936Z,10.73
2022-11-15T00:52:34.300Z,10.65
2022-11-15T00:55:21.264Z,8.98
2022-11-15T00:58:08.750Z,10.13
2022-11-15T01:00:55.657Z,9.65
2022-11-15T01:03:43.073Z,11.93
2022-11-15T01:06:29.631Z,13.90
2022-11-15T01:09:15.949Z,11.32
2022-11-15T01:12:02.031Z,9.55
2022-11-15T01:14:49.882Z,9.90
2022-11-15T01:17:35.968Z,10.50
2022-11-15T01:20:22.162Z,10.13
2022-11-15T01:23:08.745Z,11.30
2022-11-15T01:26:00.836Z,11.35
2022-11-15T01:28:47.209Z,14.32
2022-11-15T01:31:34.751Z,10.50
2022-11-15T01:34:21.521Z,11.98
2022-11-15T01:37:08.024Z,11.18
2022-11-15T01:39:54.227Z,9.32
2022-11-15T01:42:41.280Z,10.30
2022-11-15T01:45:28.085Z,11.50
2022-11-15T01:48:16.321Z,10.13
2022-11-15T01:51:06.965Z,11.35
2022-11-15T01:54:00.689Z,9.13
2022-11-15T01:56:50.666Z,10.85
2022-11-15T01:59:38.568Z,9.60
2022-11-15T02:02:24.734Z,10.65
2022-11-15T02:05:12.499Z,10.25
2022-11-15T02:07:59.449Z,10.38
2022-11-15T02:10:45.804Z,10.30
2022-11-15T02:13:32.604Z,11.00
2022-11-15T02:16:29.736Z,11.52
2022-11-15T02:19:29.329Z,10.07
2022-11-15T02:22:29.991Z,10.43
2022-11-15T02:25:40.220Z,8.55
2022-11-15T02:28:50.289Z,9.93
2022-11-15T02:31:47.958Z,8.00
2022-11-15T02:34:44.446Z,7.35
2022-11-15T02:37:38.801Z,9.48
2022-11-15T02:40:36.526Z,7.95
2022-11-15T02:43:47.737Z,9.73
2022-11-15T02:46:58.522Z,8.73
2022-11-15T02:49:48.725Z,8.43
2022-11-15T02:52:34.926Z,9.43
2022-11-15T02:55:30.063Z,10.18
2022-11-15T02:58:51.951Z,8.98
2022-11-15T03:01:52.391Z,9.80
2022-11-15T03:04:46.614Z,12.65
2022-11-15T03:07:40.916Z,6.93
2022-11-15T03:10:34.709Z,8.85
2022-11-15T03:13:28.587Z,10.57
2022-11-15T03:16:21.783Z,11.18
2022-11-15T03:19:15.380Z,10.52
2022-11-15T03:22:05.606Z,9.38
2022-11-15T03:24:56.073Z,10.10
2022-11-15T03:27:48.755Z,8.82
2022-11-15T03:30:36.669Z,10.95
2022-11-15T03:33:24.022Z,7.47
2022-11-15T03:36:12.500Z,9.10
2022-11-15T03:39:03.952Z,7.78
2022-11-15T03:41:55.062Z,8.43
2022-11-15T03:44:48.153Z,7.28
2022-11-15T03:47:38.281Z,9.55
2022-11-15T03:50:26.214Z,8.93
2022-11-15T03:53:14.488Z,8.98
2022-11-15T03:56:01.026Z,8.57
2022-11-15T03:58:47.211Z,7.10
2022-11-15T04:01:33.839Z,7.88
2022-11-15T04:04:20.318Z,7.68
2022-11-15T04:07:07.198Z,7.28
2022-11-15T04:10:04.140Z,7.78
2022-11-15T04:12:50.314Z,7.57
2022-11-15T04:15:37.269Z,7.38
2022-11-15T04:18:23.571Z,8.10
2022-11-15T04:21:27.705Z,6.75
2022-11-15T04:24:14.316Z,9.27
2022-11-15T04:27:02.135Z,7.70
2022-11-15T04:29:48.955Z,7.18
2022-11-15T04:32:35.690Z,8.15
2022-11-15T04:35:21.925Z,9.23
2022-11-15T04:38:10.853Z,8.55
2022-11-15T04:40:57.341Z,10.38
2022-11-15T04:43:44.785Z,8.25
2022-11-15T04:46:30.924Z,8.65
2022-11-15T04:49:17.216Z,7.65
2022-11-15T04:52:03.302Z,7.72
2022-11-15T04:54:49.637Z,10.73
2022-11-15T04:57:35.901Z,7.93
2022-11-15T05:00:23.820Z,6.93
2022-11-15T05:03:29.341Z,7.30
2022-11-15T05:06:15.843Z,7.60
2022-11-15T05:09:01.975Z,7.60
2022-11-15T05:11:48.624Z,7.20
2022-11-15T05:14:34.971Z,7.45
2022-11-15T05:17:22.605Z,7.30
2022-11-15T05:20:09.759Z,8.88
2022-11-15T05:22:56.608Z,9.82
2022-11-15T05:25:42.814Z,13.65
2022-11-15T05:28:28.897Z,8.57
2022-11-15T05:31:17.212Z,8.10
2022-11-15T05:34:06.766Z,7.95
2022-11-15T05:36:53.405Z,8.60
2022-11-15T05:39:39.757Z,8.52
2022-11-15T05:42:28.946Z,8.85
2022-11-15T05:45:15.432Z,8.23
2022-11-15T05:48:06.681Z,9.57
2022-11-15T05:50:54.981Z,7.97
2022-11-15T05:53:41.260Z,7.78
2022-11-15T05:56:27.824Z,7.85
2022-11-15T05:59:15.083Z,10.65
2022-11-15T06:02:01.570Z,11.10
2022-11-15T06:04:47.529Z,9.98
2022-11-15T06:07:35.273Z,8.93
2022-11-15T06:10:21.895Z,8.55
2022-11-15T06:13:08.318Z,8.15
2022-11-15T06:15:57.430Z,6.97
2022-11-15T06:18:43.817Z,9.07
2022-11-15T06:21:30.103Z,8.05
2022-11-15T06:24:17.830Z,8.32
2022-11-15T06:27:04.251Z,11.40
2022-11-15T06:29:50.414Z,11.52
2022-11-15T06:32:36.596Z,7.80
2022-11-15T06:35:23.086Z,10.73
2022-11-15T06:38:11.012Z,9.13
2022-11-15T06:41:03.632Z,8.45
2022-11-15T06:43:49.937Z,8.77
2022-11-15T06:46:36.333Z,11.05
2022-11-15T06:49:22.989Z,8.88
2022-11-15T06:52:09.341Z,9.57
2022-11-15T06:54:55.648Z,11.55
2022-11-15T06:57:50.014Z,8.48
2022-11-15T07:00:36.298Z,10.20
2022-11-15T07:03:22.491Z,9.30
2022-11-15T07:06:10.036Z,8.45
2022-11-15T07:08:56.421Z,10.50
2022-11-15T07:11:42.908Z,8.77
2022-11-15T07:14:31.102Z,7.70
2022-11-15T07:17:17.696Z,8.38
2022-11-15T07:20:04.757Z,8.25
2022-11-15T07:22:51.362Z,8.73
2022-11-15T07:25:37.969Z,9.70
2022-11-15T07:28:23.951Z,10.25
2022-11-15T07:31:12.202Z,12.48
2022-11-15T07:33:58.634Z,9.63
2022-11-15T07:36:44.678Z,9.00
2022-11-15T07:39:31.179Z,7.32
2022-11-15T07:42:35.120Z,9.27
2022-11-15T07:45:21.733Z,7.78
2022-11-15T07:48:09.908Z,8.73
2022-11-15T07:50:56.007Z,7.78
2022-11-15T07:53:42.640Z,12.77
2022-11-15T07:56:29.013Z,7.80
2022-11-15T07:59:15.331Z,16.25
2022-11-15T08:02:01.738Z,9.38
2022-11-15T08:04:49.274Z,8.63
2022-11-15T08:07:35.788Z,8.45
2022-11-15T08:10:22.411Z,9.85
2022-11-15T08:13:10.569Z,10.82
2022-11-15T08:16:01.000Z,9.98
2022-11-15T08:18:47.486Z,9.70
2022-11-15T08:21:35.992Z,7.88
2022-11-15T08:24:22.357Z,8.50
2022-11-15T08:27:15.846Z,9.68
2022-11-15T08:30:02.517Z,7.72
2022-11-15T08:32:48.692Z,7.90
2022-11-15T08:35:35.134Z,8.88
2022-11-15T08:38:22.864Z,9.52
2022-11-15T08:41:15.493Z,10.50
2022-11-15T08:44:01.882Z,7.65
2022-11-15T08:46:48.506Z,9.98
2022-11-15T08:49:35.215Z,8.10
2022-11-15T08:52:21.817Z,10.18
2022-11-15T08:55:10.592Z,7.82
2022-11-15T08:57:59.239Z,8.55
2022-11-15T09:00:45.462Z,7.63
2022-11-15T09:03:32.306Z,9.73
2022-11-15T09:06:18.726Z,10.55
2022-11-15T09:09:05.708Z,9.30
2022-11-15T09:11:56.796Z,11.50
2022-11-15T09:14:46.014Z,8.88
2022-11-15T09:17:32.060Z,9.43
2022-11-15T09:20:18.460Z,8.30
2022-11-15T09:23:06.321Z,10.32
2022-11-15T09:25:53.022Z,9.18
2022-11-15T09:28:42.814Z,11.20
2022-11-15T09:31:30.386Z,10.88
2022-11-15T09:34:17.049Z,10.23
2022-11-15T09:37:03.749Z,11.60
2022-11-15T09:39:50.148Z,12.90
2022-11-15T09:42:50.825Z,12.60
2022-11-15T09:45:49.247Z,11.20
2022-11-15T09:48:55.044Z,11.18
2022-11-15T09:51:47.967Z,13.38
2022-11-15T09:57:17.149Z,13.43
2022-11-15T09:59:53.303Z,13.27
2022-11-15T10:02:36.825Z,10.00
2022-11-15T10:05:05.382Z,10.45
2022-11-15T10:07:40.500Z,12.98
2022-11-15T10:10:17.064Z,10.18
2022-11-15T10:12:50.009Z,13.38
2022-11-15T10:15:23.474Z,13.77
2022-11-15T10:18:21.520Z,11.02
2022-11-15T10:20:51.404Z,12.30
2022-11-15T10:23:22.408Z,11.30
2022-11-15T10:25:54.937Z,11.85
2022-11-15T10:28:26.950Z,11.25
2022-11-15T10:30:56.399Z,8.73
2022-11-15T10:33:36.102Z,12.38
2022-11-15T10:36:32.736Z,9.27
2022-11-15T10:39:00.861Z,9.93
2022-11-15T10:41:40.326Z,10.73
2022-11-15T10:44:24.313Z,10.30
2022-11-15T10:47:21.479Z,12.13
2022-11-15T10:49:58.272Z,9.00
2022-11-15T10:52:26.637Z,8.88
2022-11-15T10:54:58.815Z,12.88
2022-11-15T10:57:29.305Z,9.65
2022-11-15T11:00:00.516Z,10.55
2022-11-15T11:02:32.722Z,9.65
2022-11-15T11:05:02.851Z,9.75
2022-11-15T11:07:33.136Z,11.18
2022-11-15T11:10:13.296Z,11.43
2022-11-15T11:12:50.665Z,9.25
2022-11-15T11:15:19.701Z,10.82
2022-11-15T11:17:59.772Z,12.18
2022-11-15T11:20:36.531Z,11.50
2022-11-15T11:23:25.885Z,11.80
2022-11-15T11:26:15.072Z,11.63
2022-11-15T11:28:52.689Z,10.40
2022-11-15T11:31:32.418Z,10.02
2022-11-15T11:34:10.582Z,11.23
2022-11-15T11:36:44.422Z,10.02
2022-11-15T11:39:26.190Z,9.18
2022-11-15T11:42:04.222Z,9.65
2022-11-15T11:44:40.570Z,9.80
2022-11-15T11:47:12.917Z,11.60
2022-11-15T11:49:47.057Z,9.23
2022-11-15T11:52:20.492Z,10.20
2022-11-15T11:54:58.347Z,9.35
2022-11-15T11:57:35.373Z,11.60
2022-11-15T12:00:07.645Z,8.73
2022-11-15T12:02:43.255Z,9.30
2022-11-15T12:05:19.040Z,11.45
2022-11-15T12:07:50.707Z,16.92
2022-11-15T12:10:24.768Z,13.60
2022-11-15T12:13:00.703Z,11.85
2022-11-15T12:15:33.136Z,10.23
2022-11-15T12:18:03.378Z,8.23
2022-11-15T12:20:35.708Z,10.98
2022-11-15T12:23:10.476Z,8.73
2022-11-15T12:25:47.442Z,6.95
2022-11-15T12:28:21.538Z,9.20
2022-11-15T12:30:54.986Z,8.57
2022-11-15T12:33:36.804Z,6.07
2022-11-15T12:36:06.542Z,8.68
2022-11-15T12:38:55.960Z,6.50
2022-11-15T12:41:25.215Z,7.47
2022-11-15T12:43:53.963Z,6.47
2022-11-15T12:46:38.400Z,7.05
2022-11-15T12:49:13.684Z,7.57
2022-11-15T12:52:08.139Z,7.10
2022-11-15T12:54:57.134Z,7.50
2022-11-15T12:57:33.491Z,5.00
2022-11-15T13:00:04.250Z,5.70
2022-11-15T13:02:35.468Z,4.50
2022-11-15T13:05:36.874Z,6.03
2022-11-15T13:08:04.802Z,7.43
2022-11-15T13:10:35.652Z,7.65
2022-11-15T13:13:05.715Z,4.82
2022-11-15T13:15:48.646Z,6.28
2022-11-15T13:18:32.750Z,6.70
2022-11-15T13:21:02.985Z,5.45
2022-11-15T13:23:30.261Z,5.47
2022-11-15T13:26:17.413Z,6.85
2022-11-15T13:28:48.413Z,5.78
2022-11-15T13:31:25.089Z,6.78
2022-11-15T13:33:54.166Z,5.88
2022-11-15T13:36:24.564Z,4.63
2022-11-15T13:39:01.257Z,6.07
2022-11-15T13:41:31.970Z,7.43
2022-11-15T13:44:01.833Z,7.68
2022-11-15T13:46:30.933Z,5.35
2022-11-15T13:49:00.585Z,5.88
2022-11-15T13:51:42.247Z,4.30
2022-11-15T13:54:21.436Z,7.53
2022-11-15T13:56:56.710Z,4.82
2022-11-15T13:59:27.830Z,8.65
2022-11-15T14:01:57.108Z,7.28
2022-11-15T14:04:27.527Z,5.28
2022-11-15T14:06:58.531Z,5.03
2022-11-15T14:09:33.738Z,4.00
2022-11-15T14:12:04.733Z,5.32
2022-11-15T14:14:32.431Z,5.95
2022-11-15T14:17:02.413Z,8.35
2022-11-15T14:19:39.288Z,8.02
2022-11-15T14:22:18.146Z,6.22
2022-11-15T14:24:47.808Z,4.90
2022-11-15T14:27:25.929Z,5.90
2022-11-15T14:29:54.283Z,8.15
2022-11-15T14:32:23.668Z,5.32
2022-11-15T14:34:56.279Z,5.20
2022-11-15T14:37:26.612Z,5.53
2022-11-15T14:39:55.287Z,6.35
2022-11-15T14:42:25.617Z,6.65
2022-11-15T14:44:53.998Z,5.60
2022-11-15T14:47:21.866Z,5.07
2022-11-15T14:49:49.904Z,5.45
2022-11-15T14:52:32.574Z,5.80
2022-11-15T14:55:02.331Z,9.75
2022-11-15T14:57:32.129Z,9.90
2022-11-15T14:59:59.864Z,8.27
2022-11-15T15:02:41.588Z,6.60
2022-11-15T15:05:17.252Z,5.50
2022-11-15T15:07:45.194Z,4.65
2022-11-15T15:13:03.423Z,6.35
2022-11-15T15:15:35.291Z,9.55
2022-11-15T15:18:03.777Z,6.70
2022-11-15T15:20:31.576Z,6.50
2022-11-15T15:22:59.999Z,7.30
2022-11-15T15:25:30.762Z,6.68
2022-11-15T15:27:58.583Z,7.80
2022-11-15T15:30:31.159Z,9.57
2022-11-15T15:32:59.475Z,6.20
2022-11-15T15:35:32.236Z,7.18
2022-11-15T15:38:00.684Z,10.30
2022-11-15T15:40:30.323Z,6.85
2022-11-15T15:42:58.051Z,6.90
2022-11-15T15:45:29.200Z,6.05
2022-11-15T15:47:57.302Z,9.95
2022-11-15T15:50:27.902Z,7.03
2022-11-15T15:52:57.427Z,8.20
2022-11-15T15:55:25.949Z,8.27
2022-11-15T15:57:54.153Z,5.82
2022-11-15T16:00:24.456Z,5.20
2022-11-15T16:02:54.158Z,6.95
2022-11-15T16:05:22.785Z,6.75
2022-11-15T16:07:50.698Z,5.00
2022-11-15T16:10:25.949Z,4.78
2022-11-15T16:12:55.042Z,6.93
2022-11-15T16:15:25.599Z,7.15
2022-11-15T16:21:18.464Z,6.40
2022-11-15T16:23:46.852Z,6.50
2022-11-15T16:26:21.995Z,5.75
2022-11-15T16:28:50.231Z,6.30
2022-11-15T16:31:22.226Z,5.47
2022-11-15T16:33:49.952Z,5.78
2022-11-15T16:36:29.548Z,6.60
2022-11-15T16:38:59.744Z,9.18
2022-11-15T16:41:27.849Z,7.13
2022-11-15T16:43:56.165Z,8.23
2022-11-15T16:46:25.278Z,7.32
2022-11-15T16:48:54.794Z,6.63
2022-11-15T16:51:24.626Z,19.73
2022-11-15T16:53:52.893Z,21.73
2022-11-15T16:56:25.713Z,8.32
2022-11-15T16:58:54.625Z,8.50
2022-11-15T17:01:26.169Z,7.28
2022-11-15T17:03:54.446Z,13.55
2022-11-15T17:06:24.338Z,7.90
2022-11-15T17:08:52.232Z,7.55
2022-11-15T17:11:22.287Z,9.23
2022-11-15T17:13:50.571Z,8.70
2022-11-15T17:16:19.338Z,10.80
2022-11-15T17:18:52.675Z,9.35
2022-11-15T17:21:23.451Z,10.52
2022-11-15T17:23:51.105Z,20.95
2022-11-15T17:26:39.176Z,14.10
2022-11-15T17:29:08.252Z,11.45
2022-11-15T17:31:37.060Z,10.82
2022-11-15T17:34:06.258Z,10.63
2022-11-15T17:36:35.996Z,10.30
2022-11-15T17:39:06.083Z,12.82
2022-11-15T17:41:34.152Z,13.07
2022-11-15T17:44:03.412Z,12.93
2022-11-15T17:46:32.327Z,12.07
2022-11-15T17:49:00.821Z,11.60
2022-11-15T17:51:28.582Z,11.50
2022-11-15T17:53:57.705Z,13.85
2022-11-15T17:56:28.448Z,12.90
2022-11-15T17:58:57.281Z,12.88
2022-11-15T18:01:26.860Z,11.68
2022-11-15T18:03:55.293Z,13.85
2022-11-15T18:06:24.536Z,13.02
2022-11-15T18:08:53.658Z,11.18
2022-11-15T18:11:24.193Z,10.32
2022-11-15T18:13:53.737Z,11.48
2022-11-15T18:16:24.639Z,11.30
2022-11-15T18:18:52.529Z,13.38
2022-11-15T18:21:21.833Z,12.82
2022-11-15T18:23:50.476Z,11.98
2022-11-15T18:26:23.074Z,13.82
2022-11-15T18:28:57.584Z,20.20
2022-11-15T18:31:27.285Z,16.50
2022-11-15T18:33:56.054Z,13.68
2022-11-15T18:36:25.590Z,13.50
2022-11-15T18:38:55.469Z,16.00
2022-11-15T18:41:25.377Z,15.35
2022-11-15T18:43:54.508Z,10.52
2022-11-15T18:46:24.124Z,14.55
2022-11-15T18:48:53.429Z,12.90
2022-11-15T18:51:23.082Z,15.05
2022-11-15T18:53:54.040Z,11.80
2022-11-15T18:56:23.043Z,11.57
2022-11-15T18:58:53.029Z,11.98
2022-11-15T19:01:24.603Z,10.70
2022-11-15T19:03:57.145Z,12.98
2022-11-15T19:06:27.865Z,11.60
2022-11-15T19:08:58.491Z,14.02
2022-11-15T19:11:28.847Z,11.68
2022-11-15T19:13:59.902Z,12.40
2022-11-15T19:16:29.766Z,9.90
2022-11-15T19:18:58.898Z,10.93
2022-11-15T19:21:28.040Z,12.43
2022-11-15T19:23:55.934Z,9.63
2022-11-15T19:26:24.854Z,10.60
2022-11-15T19:28:53.836Z,11.20
2022-11-15T19:31:23.844Z,13.90
2022-11-15T19:33:53.827Z,12.15
2022-11-15T19:36:24.354Z,13.02
2022-11-15T19:38:52.066Z,13.82
2022-11-15T19:41:22.257Z,13.65
2022-11-15T19:43:50.827Z,18.95
2022-11-15T19:46:20.442Z,17.85
2022-11-15T19:48:48.808Z,13.82
2022-11-15T19:51:21.426Z,15.38
2022-11-15T19:53:50.226Z,15.05
2022-11-15T19:56:20.013Z,11.40
2022-11-15T19:58:51.428Z,13.80
2022-11-15T20:01:21.196Z,13.93
2022-11-15T20:03:50.102Z,15.68
2022-11-15T20:06:20.684Z,13.25
2022-11-15T20:08:48.494Z,11.73
2022-11-15T20:11:16.978Z,12.30
2022-11-15T20:13:44.708Z,11.15
2022-11-15T20:16:16.661Z,12.93
2022-11-15T20:18:45.266Z,12.63
2022-11-15T20:21:13.466Z,14.05
2022-11-15T20:23:43.311Z,13.80
2022-11-15T20:26:12.461Z,34.28
2022-11-15T20:28:41.265Z,25.27
2022-11-15T20:31:11.218Z,14.88
2022-11-15T20:33:39.060Z,13.50
2022-11-15T20:36:07.429Z,12.07
2022-11-15T20:38:35.626Z,12.35
2022-11-15T20:41:05.317Z,11.45
2022-11-15T20:43:33.032Z,11.60
2022-11-15T20:46:00.795Z,14.13
2022-11-15T20:48:28.459Z,14.20
2022-11-15T20:51:05.433Z,12.52
2022-11-15T20:53:33.174Z,16.23
2022-11-15T20:56:08.512Z,14.07
2022-11-15T20:58:37.400Z,18.08
2022-11-15T21:01:06.932Z,19.92
2022-11-15T21:03:35.695Z,16.70
2022-11-15T21:06:03.816Z,14.25
2022-11-15T21:08:52.454Z,16.70
2022-11-15T21:11:40.933Z,16.15
2022-11-15T21:14:09.886Z,15.25
2022-11-15T21:16:38.200Z,13.38
2022-11-15T21:19:06.931Z,16.90
2022-11-15T21:21:34.916Z,11.02
2022-11-15T21:24:03.611Z,16.27
2022-11-15T21:26:32.811Z,12.27
2022-11-15T21:29:00.730Z,11.57
2022-11-15T21:31:28.750Z,10.65
2022-11-15T21:33:56.618Z,11.02
2022-11-15T21:36:24.980Z,13.52
2022-11-15T21:38:53.586Z,10.65
2022-11-15T21:41:22.030Z,10.25
2022-11-15T21:43:51.115Z,13.82
2022-11-15T21:46:18.889Z,12.25
2022-11-15T21:48:46.583Z,9.13
2022-11-15T21:51:14.502Z,13.82
2022-11-15T21:53:48.037Z,13.02
2022-11-15T21:56:16.440Z,10.60
2022-11-15T21:58:44.124Z,15.82
2022-11-15T22:01:31.369Z,12.77
2022-11-15T22:03:59.273Z,11.90
2022-11-15T22:06:27.592Z,11.00
2022-11-15T22:08:55.451Z,11.02
2022-11-15T22:11:23.143Z,11.05
2022-11-15T22:13:50.834Z,11.65
2022-11-15T22:16:20.560Z,11.23
2022-11-15T22:18:48.343Z,11.73
2022-11-15T22:21:18.089Z,16.80
2022-11-15T22:23:46.881Z,12.95
2022-11-15T22:26:22.035Z,12.68
2022-11-15T22:28:51.152Z,12.57
2022-11-15T22:31:20.484Z,10.27
2022-11-15T22:33:48.484Z,10.20
2022-11-15T22:36:16.242Z,11.43
2022-11-15T22:38:44.629Z,11.05
2022-11-15T22:41:12.618Z,11.55
2022-11-15T22:43:40.434Z,11.88
2022-11-15T22:46:08.477Z,10.88
2022-11-15T22:48:39.442Z,10.25
2022-11-15T22:51:08.289Z,14.32
2022-11-15T22:53:36.169Z,13.18
2022-11-15T22:56:06.439Z,12.77
2022-11-15T22:58:35.002Z,12.23
2022-11-15T23:01:05.168Z,11.50
2022-11-15T23:03:34.227Z,11.25
2022-11-15T23:06:05.301Z,10.27
2022-11-15T23:08:33.261Z,10.82
2022-11-15T23:11:19.482Z,11.55
2022-11-15T23:13:47.734Z,14.20
2022-11-15T23:16:25.678Z,12.07
2022-11-15T23:18:55.427Z,13.63
2022-11-15T23:21:43.804Z,12.55
2022-11-15T23:24:12.827Z,12.90
2022-11-15T23:26:41.431Z,13.00
2022-11-15T23:29:10.931Z,13.98
2022-11-15T23:32:01.974Z,14.80
2022-11-15T23:34:31.613Z,12.63
2022-11-15T23:37:00.867Z,14.32
2022-11-15T23:39:29.179Z,15.45
2022-11-15T23:41:56.945Z,11.85
2022-11-15T23:44:25.500Z,14.02
2022-11-15T23:46:53.725Z,11.45
2022-11-15T23:49:21.912Z,11.95
2022-11-15T23:51:49.986Z,9.68
2022-11-15T23:54:19.583Z,11.23
2022-11-15T23:56:47.470Z,16.02
2022-11-15T23:59:15.213Z,12.48
